createdAt,value
2022-10-22T02:00:49.408Z,99.99
2022-10-22T02:01:10.011Z,99.99
2022-10-22T02:01:30.587Z,99.99
2022-10-22T02:01:51.174Z,99.99
2022-10-22T02:02:11.757Z,99.99
2022-10-22T02:02:32.338Z,99.99
2022-10-22T02:02:52.934Z,99.99
2022-10-22T02:03:13.504Z,99.99
2022-10-22T02:03:34.083Z,99.99
2022-10-22T02:03:54.665Z,99.99
2022-10-22T02:04:15.072Z,99.99
2022-10-22T02:04:35.656Z,99.99
2022-10-22T02:04:56.234Z,99.99
2022-10-22T02:05:16.825Z,99.99
2022-10-22T02:05:37.404Z,99.96
2022-10-22T02:05:57.978Z,99.96
2022-10-22T02:06:18.555Z,99.96
2022-10-22T02:06:39.142Z,99.86
2022-10-22T02:06:59.721Z,99.86
2022-10-22T02:07:20.310Z,99.86
2022-10-22T02:07:41.333Z,99.86
2022-10-22T02:08:02.076Z,99.76
2022-10-22T02:08:22.650Z,99.76
2022-10-22T02:08:43.297Z,99.76
2022-10-22T02:09:04.011Z,99.76
2022-10-22T02:09:24.608Z,99.76
2022-10-22T02:09:45.000Z,99.76
2022-10-22T02:10:05.587Z,99.76
2022-10-22T02:10:26.165Z,99.76
2022-10-22T02:10:46.561Z,99.76
2022-10-22T02:11:07.143Z,99.76
2022-10-22T02:11:27.722Z,99.76
2022-10-22T02:11:48.305Z,99.76
2022-10-22T02:12:08.886Z,99.76
2022-10-22T02:12:29.467Z,99.76
2022-10-22T02:12:50.049Z,99.76
2022-10-22T02:13:10.445Z,99.76
2022-10-22T02:13:31.028Z,99.76
2022-10-22T02:13:51.614Z,99.76
2022-10-22T02:14:12.204Z,99.76
2022-10-22T02:14:32.787Z,99.76
2022-10-22T02:14:53.370Z,99.76
2022-10-22T02:15:13.959Z,99.66
2022-10-22T02:15:34.537Z,99.66
2022-10-22T02:15:55.137Z,99.66
2022-10-22T02:16:15.701Z,99.55
2022-10-22T02:16:36.281Z,99.55
2022-10-22T02:16:56.864Z,99.55
2022-10-22T02:17:17.257Z,99.55
2022-10-22T02:17:37.839Z,99.55
2022-10-22T02:17:58.418Z,99.55
2022-10-22T02:18:18.998Z,99.45
2022-10-22T02:18:39.605Z,99.45
2022-10-22T02:19:00.163Z,99.45
2022-10-22T02:19:20.765Z,99.45
2022-10-22T02:19:41.158Z,99.45
2022-10-22T02:20:01.740Z,99.45
2022-10-22T02:20:22.136Z,99.45
2022-10-22T02:20:42.713Z,99.45
2022-10-22T02:21:03.332Z,99.45
2022-10-22T02:21:23.898Z,99.45
2022-10-22T02:21:44.482Z,99.55
2022-10-22T02:22:05.063Z,99.55
2022-10-22T02:22:25.459Z,99.66
2022-10-22T02:22:46.036Z,99.66
2022-10-22T02:23:06.947Z,99.66
2022-10-22T02:23:27.528Z,99.66
2022-10-22T02:23:48.114Z,99.66
2022-10-22T02:24:08.699Z,99.76
2022-10-22T02:24:29.312Z,99.76
2022-10-22T02:24:49.895Z,99.76
2022-10-22T02:25:10.477Z,99.86
2022-10-22T02:25:31.058Z,99.86
2022-10-22T02:25:51.640Z,99.86
2022-10-22T02:26:12.229Z,99.96
2022-10-22T02:26:32.810Z,99.96
2022-10-22T02:26:53.393Z,99.96
2022-10-22T02:27:13.977Z,99.96
2022-10-22T02:27:34.556Z,99.96
2022-10-22T02:27:54.955Z,99.96
2022-10-22T02:28:15.534Z,99.96
2022-10-22T02:28:36.119Z,99.96
2022-10-22T02:28:56.699Z,99.99
2022-10-22T02:29:17.281Z,99.99
2022-10-22T02:29:37.873Z,99.99
2022-10-22T02:29:58.456Z,99.99
2022-10-22T02:30:19.047Z,99.99
2022-10-22T02:30:39.620Z,99.99
2022-10-22T02:31:00.227Z,99.99
2022-10-22T02:31:20.786Z,99.99
2022-10-22T02:31:41.364Z,99.99
2022-10-22T02:32:01.949Z,99.99
2022-10-22T02:32:22.533Z,99.99
2022-10-22T02:32:43.335Z,99.99
2022-10-22T02:33:03.973Z,99.99
2022-10-22T02:33:24.558Z,99.99
2022-10-22T02:33:45.138Z,99.99
2022-10-22T02:34:05.724Z,99.99
2022-10-22T02:34:26.324Z,99.99
2022-10-22T02:34:46.897Z,99.96
2022-10-22T02:35:07.480Z,99.96
2022-10-22T02:35:28.060Z,99.86
2022-10-22T02:35:48.648Z,99.86
2022-10-22T02:36:09.226Z,99.91
2022-10-22T02:36:29.810Z,99.80
2022-10-22T02:36:50.616Z,99.80
2022-10-22T02:37:11.193Z,99.80
2022-10-22T02:37:31.780Z,99.80
2022-10-22T02:37:52.359Z,99.80
2022-10-22T02:38:12.941Z,99.80
2022-10-22T02:38:33.528Z,99.80
2022-10-22T02:38:54.110Z,99.80
2022-10-22T02:39:14.689Z,99.80
2022-10-22T02:39:35.283Z,99.80
2022-10-22T02:39:55.887Z,99.70
2022-10-22T02:40:16.470Z,99.70
2022-10-22T02:40:37.054Z,99.70
2022-10-22T02:40:57.641Z,99.70
2022-10-22T02:41:18.225Z,99.70
2022-10-22T02:41:38.787Z,99.70
2022-10-22T02:41:59.374Z,99.70
2022-10-22T02:42:19.955Z,99.70
2022-10-22T02:42:40.550Z,99.70
2022-10-22T02:43:01.210Z,99.70
2022-10-22T02:43:21.793Z,99.70
2022-10-22T02:43:42.374Z,99.70
2022-10-22T02:44:02.953Z,99.70
2022-10-22T02:44:23.556Z,99.60
2022-10-22T02:44:44.135Z,99.60
2022-10-22T02:45:04.715Z,99.50
2022-10-22T02:45:25.308Z,99.50
2022-10-22T02:45:45.891Z,99.50
2022-10-22T02:46:06.496Z,99.50
2022-10-22T02:46:27.058Z,99.50
2022-10-22T02:46:47.639Z,99.50
2022-10-22T02:47:08.217Z,99.50
2022-10-22T02:47:29.199Z,99.50
2022-10-22T02:47:49.780Z,99.50
2022-10-22T02:48:10.424Z,99.50
2022-10-22T02:48:30.991Z,99.50
2022-10-22T02:48:51.574Z,99.40
2022-10-22T02:49:12.157Z,99.40
2022-10-22T02:49:32.756Z,99.40
2022-10-22T02:49:53.334Z,99.40
2022-10-22T02:50:13.914Z,99.40
2022-10-22T02:50:34.499Z,99.40
2022-10-22T02:50:55.083Z,99.50
2022-10-22T02:51:15.665Z,99.50
2022-10-22T02:51:36.248Z,99.50
2022-10-22T02:51:56.835Z,99.50
2022-10-22T02:52:17.417Z,99.50
2022-10-22T02:52:38.488Z,99.50
2022-10-22T02:52:59.239Z,99.50
2022-10-22T02:53:19.640Z,99.50
2022-10-22T02:53:40.235Z,99.50
2022-10-22T02:54:00.818Z,99.50
2022-10-22T02:54:21.399Z,99.40
2022-10-22T02:54:41.806Z,99.40
2022-10-22T02:55:02.384Z,99.40
2022-10-22T02:55:22.968Z,99.40
2022-10-22T02:55:43.547Z,99.40
2022-10-22T02:56:04.126Z,99.29
2022-10-22T02:56:24.714Z,99.29
2022-10-22T02:56:45.294Z,99.29
2022-10-22T02:57:05.880Z,99.29
2022-10-22T02:57:26.461Z,99.40
2022-10-22T02:57:47.042Z,99.40
2022-10-22T02:58:07.624Z,99.40
2022-10-22T02:58:28.014Z,99.40
2022-10-22T02:58:48.597Z,99.40
2022-10-22T02:59:09.182Z,99.40
2022-10-22T02:59:29.761Z,99.40
2022-10-22T02:59:50.353Z,99.40
2022-10-22T03:00:10.931Z,99.40
2022-10-22T03:00:31.581Z,99.29
2022-10-22T03:00:52.260Z,99.29
2022-10-22T03:01:15.420Z,99.29
2022-10-22T03:01:36.877Z,99.29
2022-10-22T03:01:57.463Z,99.29
2022-10-22T03:02:18.047Z,99.29
2022-10-22T03:02:38.644Z,99.29
2022-10-22T03:02:59.211Z,99.40
2022-10-22T03:03:19.791Z,99.40
2022-10-22T03:03:40.373Z,99.40
2022-10-22T03:04:00.956Z,99.29
2022-10-22T03:04:21.533Z,99.29
2022-10-22T03:04:42.131Z,99.29
2022-10-22T03:05:02.711Z,99.29
2022-10-22T03:05:23.299Z,99.29
2022-10-22T03:05:43.881Z,99.29
2022-10-22T03:06:04.459Z,99.29
2022-10-22T03:06:45.446Z,99.29
2022-10-22T03:07:06.023Z,99.29
2022-10-22T03:07:26.603Z,99.29
2022-10-22T03:07:47.188Z,99.29
2022-10-22T03:08:07.768Z,99.29
2022-10-22T03:08:28.164Z,99.40
2022-10-22T03:08:48.768Z,99.40
2022-10-22T03:09:09.364Z,99.40
2022-10-22T03:09:29.911Z,99.40
2022-10-22T03:09:50.321Z,99.40
2022-10-22T03:10:10.906Z,99.40
2022-10-22T03:10:31.489Z,99.40
2022-10-22T03:10:51.885Z,99.40
2022-10-22T03:11:12.468Z,99.40
2022-10-22T03:11:33.051Z,99.40
2022-10-22T03:11:53.631Z,99.50
2022-10-22T03:12:14.215Z,99.50
2022-10-22T03:12:34.800Z,99.60
2022-10-22T03:12:55.403Z,99.60
2022-10-22T03:13:15.797Z,99.60
2022-10-22T03:13:36.378Z,99.60
2022-10-22T03:13:56.962Z,99.70
2022-10-22T03:14:17.544Z,99.60
2022-10-22T03:14:38.151Z,99.60
2022-10-22T03:14:58.738Z,99.60
2022-10-22T03:15:19.374Z,99.60
2022-10-22T03:15:39.714Z,99.50
2022-10-22T03:16:00.298Z,99.50
2022-10-22T03:16:20.901Z,99.50
2022-10-22T03:16:41.457Z,99.40
2022-10-22T03:17:01.856Z,99.40
2022-10-22T03:17:22.439Z,99.40
2022-10-22T03:17:43.179Z,99.50
2022-10-22T03:18:03.898Z,99.50
2022-10-22T03:18:24.489Z,99.40
2022-10-22T03:18:45.072Z,99.40
2022-10-22T03:19:05.657Z,99.40
2022-10-22T03:19:26.234Z,99.29
2022-10-22T03:19:46.642Z,99.29
2022-10-22T03:20:07.249Z,99.29
2022-10-22T03:20:27.838Z,99.40
2022-10-22T03:20:48.416Z,99.40
2022-10-22T03:21:08.999Z,99.29
2022-10-22T03:21:29.586Z,99.29
2022-10-22T03:21:50.164Z,99.29
2022-10-22T03:22:10.751Z,99.29
2022-10-22T03:22:31.141Z,99.29
2022-10-22T03:22:51.724Z,99.29
2022-10-22T03:23:12.307Z,99.29
2022-10-22T03:23:32.701Z,99.29
2022-10-22T03:23:53.285Z,99.29
2022-10-22T03:24:13.867Z,99.19
2022-10-22T03:24:34.448Z,99.19
2022-10-22T03:24:55.039Z,99.19
2022-10-22T03:25:15.626Z,99.19
2022-10-22T03:25:36.239Z,99.19
2022-10-22T03:25:56.863Z,99.09
2022-10-22T03:26:17.408Z,99.09
2022-10-22T03:26:37.998Z,99.09
2022-10-22T03:26:58.580Z,99.09
2022-10-22T03:27:19.163Z,99.09
2022-10-22T03:27:40.026Z,99.09
2022-10-22T03:28:00.733Z,99.09
2022-10-22T03:28:21.128Z,98.99
2022-10-22T03:28:41.710Z,98.99
2022-10-22T03:29:02.294Z,98.99
2022-10-22T03:29:22.872Z,99.09
2022-10-22T03:29:43.452Z,99.09
2022-10-22T03:30:04.049Z,99.09
2022-10-22T03:30:24.632Z,99.09
2022-10-22T03:30:45.217Z,98.99
2022-10-22T03:31:05.804Z,98.99
2022-10-22T03:31:26.409Z,98.99
2022-10-22T03:31:46.992Z,98.99
2022-10-22T03:32:07.551Z,98.99
2022-10-22T03:32:27.945Z,99.19
2022-10-22T03:32:48.528Z,99.29
2022-10-22T03:33:09.109Z,99.40
2022-10-22T03:33:29.506Z,99.40
2022-10-22T03:33:50.090Z,99.40
2022-10-22T03:34:10.671Z,99.40
2022-10-22T03:34:31.255Z,99.40
2022-10-22T03:34:51.913Z,99.40
2022-10-22T03:35:12.509Z,99.34
2022-10-22T03:35:33.090Z,99.34
2022-10-22T03:35:53.674Z,99.34
2022-10-22T03:36:14.259Z,99.24
2022-10-22T03:36:34.844Z,99.24
2022-10-22T03:36:55.424Z,99.24
2022-10-22T03:37:16.007Z,99.24
2022-10-22T03:37:36.596Z,99.24
2022-10-22T03:37:57.178Z,99.24
2022-10-22T03:38:17.752Z,99.24
2022-10-22T03:38:38.333Z,99.24
2022-10-22T03:38:58.917Z,99.24
2022-10-22T03:39:19.506Z,99.24
2022-10-22T03:39:40.090Z,99.24
2022-10-22T03:40:00.683Z,99.24
2022-10-22T03:40:21.269Z,99.24
2022-10-22T03:40:41.850Z,99.24
2022-10-22T03:41:02.433Z,99.24
2022-10-22T03:41:23.022Z,99.24
2022-10-22T03:41:43.600Z,99.24
2022-10-22T03:42:04.181Z,99.24
2022-10-22T03:42:24.763Z,99.24
2022-10-22T03:42:45.347Z,99.24
2022-10-22T03:43:05.738Z,99.24
2022-10-22T03:43:26.136Z,99.24
2022-10-22T03:43:46.734Z,99.24
2022-10-22T03:44:07.316Z,99.24
2022-10-22T03:44:27.901Z,99.24
2022-10-22T03:44:48.477Z,99.24
2022-10-22T03:45:09.062Z,99.24
2022-10-22T03:45:29.707Z,99.24
2022-10-22T03:45:50.051Z,99.24
2022-10-22T03:46:10.623Z,99.24
2022-10-22T03:46:31.227Z,99.24
2022-10-22T03:46:51.784Z,99.24
2022-10-22T03:47:12.366Z,99.24
2022-10-22T03:47:32.948Z,99.24
2022-10-22T03:47:53.530Z,99.24
2022-10-22T03:48:14.111Z,99.24
2022-10-22T03:48:34.693Z,99.24
2022-10-22T03:48:55.274Z,99.24
2022-10-22T03:49:15.856Z,99.24
2022-10-22T03:49:36.439Z,99.24
2022-10-22T03:49:57.022Z,99.24
2022-10-22T03:50:17.433Z,99.24
2022-10-22T03:50:38.017Z,99.34
2022-10-22T03:50:58.411Z,99.34
2022-10-22T03:51:19.000Z,99.34
2022-10-22T03:51:39.580Z,99.34
2022-10-22T03:52:00.165Z,99.24
2022-10-22T03:52:20.748Z,99.24
2022-10-22T03:52:41.327Z,99.34
2022-10-22T03:53:01.724Z,99.34
2022-10-22T03:53:22.318Z,99.34
2022-10-22T03:53:42.890Z,99.24
2022-10-22T03:54:03.471Z,99.24
2022-10-22T03:54:24.056Z,99.24
2022-10-22T03:54:44.638Z,99.24
2022-10-22T03:55:05.239Z,99.24
2022-10-22T03:55:25.811Z,99.24
2022-10-22T03:55:46.396Z,99.14
2022-10-22T03:56:06.972Z,99.14
2022-10-22T03:56:27.555Z,99.14
2022-10-22T03:56:47.947Z,99.14
2022-10-22T03:57:08.532Z,99.14
2022-10-22T03:57:28.923Z,99.14
2022-10-22T03:57:49.318Z,99.14
2022-10-22T03:58:09.719Z,99.14
2022-10-22T03:58:30.300Z,99.14
2022-10-22T03:58:50.926Z,99.14
2022-10-22T03:59:11.511Z,99.14
2022-10-22T03:59:32.100Z,99.14
2022-10-22T03:59:52.677Z,99.14
2022-10-22T04:00:13.275Z,99.24
2022-10-22T04:00:33.862Z,99.24
2022-10-22T04:00:54.486Z,99.24
2022-10-22T04:01:15.135Z,99.14
2022-10-22T04:01:35.805Z,99.14
2022-10-22T04:01:56.403Z,99.14
2022-10-22T04:02:16.974Z,99.14
2022-10-22T04:02:37.556Z,99.14
2022-10-22T04:02:58.147Z,99.14
2022-10-22T04:03:18.542Z,99.14
2022-10-22T04:03:39.124Z,99.04
2022-10-22T04:03:59.713Z,99.14
2022-10-22T04:04:20.105Z,99.14
2022-10-22T04:04:40.722Z,99.14
2022-10-22T04:05:01.392Z,99.14
2022-10-22T04:05:21.962Z,99.14
2022-10-22T04:05:42.544Z,99.24
2022-10-22T04:06:03.135Z,99.24
2022-10-22T04:06:23.708Z,99.24
2022-10-22T04:06:44.293Z,99.24
2022-10-22T04:07:04.879Z,99.24
2022-10-22T04:07:25.459Z,99.24
2022-10-22T04:07:46.037Z,99.24
2022-10-22T04:08:06.617Z,99.34
2022-10-22T04:08:27.199Z,99.34
2022-10-22T04:08:47.841Z,99.34
2022-10-22T04:09:08.512Z,99.34
2022-10-22T04:09:29.117Z,99.34
2022-10-22T04:09:49.700Z,99.34
2022-10-22T04:10:10.303Z,99.34
2022-10-22T04:10:30.885Z,99.44
2022-10-22T04:10:51.464Z,99.44
2022-10-22T04:11:12.048Z,99.44
2022-10-22T04:11:32.640Z,99.54
2022-10-22T04:11:53.219Z,99.54
2022-10-22T04:12:13.802Z,99.54
2022-10-22T04:12:34.382Z,99.54
2022-10-22T04:12:54.960Z,99.54
2022-10-22T04:13:15.537Z,99.54
2022-10-22T04:13:36.114Z,99.44
2022-10-22T04:13:56.688Z,99.44
2022-10-22T04:14:17.275Z,99.44
2022-10-22T04:14:37.862Z,99.44
2022-10-22T04:14:58.446Z,99.44
2022-10-22T04:15:19.043Z,99.54
2022-10-22T04:15:39.477Z,99.54
2022-10-22T04:16:00.048Z,99.54
2022-10-22T04:16:20.637Z,99.54
2022-10-22T04:16:41.232Z,99.54
2022-10-22T04:17:01.790Z,99.54
2022-10-22T04:17:22.377Z,99.54
2022-10-22T04:17:43.280Z,99.54
2022-10-22T04:18:03.360Z,99.65
2022-10-22T04:18:23.945Z,99.75
2022-10-22T04:18:44.523Z,99.75
2022-10-22T04:19:05.109Z,99.85
2022-10-22T04:19:25.508Z,99.95
2022-10-22T04:19:45.900Z,99.95
2022-10-22T04:20:06.484Z,99.95
2022-10-22T04:20:27.089Z,99.95
2022-10-22T04:20:47.661Z,99.95
2022-10-22T04:21:08.055Z,99.95
2022-10-22T04:21:28.636Z,99.95
2022-10-22T04:21:49.216Z,99.95
2022-10-22T04:22:09.616Z,99.85
2022-10-22T04:22:30.197Z,99.85
2022-10-22T04:22:50.783Z,99.95
2022-10-22T04:23:11.365Z,99.99
2022-10-22T04:23:31.948Z,99.99
2022-10-22T04:23:52.537Z,99.99
2022-10-22T04:24:13.107Z,99.99
2022-10-22T04:24:33.691Z,99.99
2022-10-22T04:24:54.278Z,99.99
2022-10-22T04:25:14.870Z,99.99
2022-10-22T04:25:35.454Z,99.99
2022-10-22T04:25:56.028Z,99.99
2022-10-22T04:26:16.426Z,99.99
2022-10-22T04:26:37.010Z,99.99
2022-10-22T04:26:57.591Z,99.99
2022-10-22T04:27:18.173Z,99.99
2022-10-22T04:27:39.091Z,99.99
2022-10-22T04:27:59.918Z,99.99
2022-10-22T04:28:20.500Z,99.99
2022-10-22T04:28:40.897Z,99.99
2022-10-22T04:29:01.475Z,99.99
2022-10-22T04:29:22.058Z,99.99
2022-10-22T04:29:42.644Z,99.99
2022-10-22T04:30:03.225Z,99.99
2022-10-22T04:30:23.817Z,99.99
2022-10-22T04:30:44.443Z,99.99
2022-10-22T04:31:04.976Z,99.99
2022-10-22T04:31:25.562Z,99.99
2022-10-22T04:31:46.160Z,99.99
2022-10-22T04:32:06.733Z,99.99
2022-10-22T04:32:27.315Z,99.99
2022-10-22T04:32:47.893Z,99.99
2022-10-22T04:33:08.477Z,99.99
2022-10-22T04:33:29.062Z,99.99
2022-10-22T04:33:49.639Z,99.99
2022-10-22T04:34:10.220Z,99.99
2022-10-22T04:34:30.802Z,99.99
2022-10-22T04:34:51.380Z,99.99
2022-10-22T04:35:12.024Z,99.99
2022-10-22T04:35:32.600Z,99.99
2022-10-22T04:35:53.186Z,99.99
2022-10-22T04:36:13.770Z,99.99
2022-10-22T04:36:34.168Z,99.99
2022-10-22T04:36:54.561Z,99.99
2022-10-22T04:37:15.147Z,99.99
2022-10-22T04:37:35.727Z,99.99
2022-10-22T04:37:56.309Z,99.99
2022-10-22T04:38:16.891Z,99.99
2022-10-22T04:38:37.476Z,99.99
2022-10-22T04:38:58.060Z,99.99
2022-10-22T04:39:18.773Z,99.99
2022-10-22T04:39:39.355Z,99.99
2022-10-22T04:39:59.939Z,99.99
2022-10-22T04:40:20.627Z,99.99
2022-10-22T04:40:41.210Z,99.99
2022-10-22T04:41:01.796Z,99.99
2022-10-22T04:41:22.383Z,99.99
2022-10-22T04:41:42.775Z,99.99
2022-10-22T04:42:03.366Z,99.99
2022-10-22T04:42:23.956Z,99.99
2022-10-22T04:42:44.537Z,99.99
2022-10-22T04:43:05.117Z,99.99
2022-10-22T04:43:25.699Z,99.99
2022-10-22T04:43:46.339Z,99.99
2022-10-22T04:44:06.733Z,99.99
2022-10-22T04:44:28.127Z,99.99
2022-10-22T04:44:48.709Z,99.99
2022-10-22T04:45:09.120Z,99.99
2022-10-22T04:45:29.701Z,99.99
2022-10-22T04:45:50.313Z,99.99
2022-10-22T04:46:10.916Z,99.99
2022-10-22T04:46:31.500Z,99.99
2022-10-22T04:46:52.104Z,99.99
2022-10-22T04:47:12.663Z,99.99
2022-10-22T04:47:33.242Z,99.90
2022-10-22T04:47:53.820Z,99.90
2022-10-22T04:48:14.405Z,99.90
2022-10-22T04:48:34.990Z,99.90
2022-10-22T04:48:55.568Z,99.90
2022-10-22T04:49:16.151Z,99.90
2022-10-22T04:49:36.729Z,99.90
2022-10-22T04:49:57.129Z,99.90
2022-10-22T04:50:17.537Z,99.90
2022-10-22T04:50:38.129Z,99.90
2022-10-22T04:50:58.704Z,99.90
2022-10-22T04:51:19.283Z,99.90
2022-10-22T04:51:39.865Z,99.90
2022-10-22T04:52:00.440Z,99.99
2022-10-22T04:52:20.835Z,99.99
2022-10-22T04:52:41.419Z,99.99
2022-10-22T04:53:02.000Z,99.90
2022-10-22T04:53:22.586Z,99.99
2022-10-22T04:53:43.163Z,99.99
2022-10-22T04:54:03.747Z,99.99
2022-10-22T04:54:26.621Z,99.90
2022-10-22T04:54:44.293Z,99.90
2022-10-22T04:55:04.888Z,99.90
2022-10-22T04:55:25.522Z,99.90
2022-10-22T04:55:46.093Z,99.90
2022-10-22T04:56:06.672Z,99.90
2022-10-22T04:56:27.250Z,99.90
2022-10-22T04:56:47.833Z,99.90
2022-10-22T04:57:08.417Z,99.90
2022-10-22T04:57:29.000Z,99.99
2022-10-22T04:57:49.583Z,99.99
2022-10-22T04:58:10.169Z,99.99
2022-10-22T04:58:30.754Z,99.99
2022-10-22T04:58:51.334Z,99.99
2022-10-22T04:59:11.916Z,99.99
2022-10-22T04:59:32.508Z,99.99
2022-10-22T04:59:53.078Z,99.99
2022-10-22T05:00:13.490Z,99.99
2022-10-22T05:00:34.072Z,99.99
2022-10-22T05:00:54.731Z,99.99
2022-10-22T05:01:15.354Z,99.99
2022-10-22T05:01:39.910Z,99.99
2022-10-22T05:01:56.388Z,99.99
2022-10-22T05:02:16.949Z,99.99
2022-10-22T05:02:37.540Z,99.99
2022-10-22T05:02:58.127Z,99.99
2022-10-22T05:03:18.711Z,99.99
2022-10-22T05:03:39.298Z,99.99
2022-10-22T05:03:59.879Z,99.99
2022-10-22T05:04:20.468Z,99.99
2022-10-22T05:04:41.045Z,99.99
2022-10-22T05:05:01.643Z,99.99
2022-10-22T05:05:22.224Z,99.99
2022-10-22T05:05:42.807Z,99.99
2022-10-22T05:06:03.461Z,99.99
2022-10-22T05:06:23.788Z,99.99
2022-10-22T05:06:44.378Z,99.99
2022-10-22T05:07:04.957Z,99.99
2022-10-22T05:07:25.533Z,99.99
2022-10-22T05:07:46.129Z,99.99
2022-10-22T05:08:06.718Z,99.99
2022-10-22T05:08:27.301Z,99.99
2022-10-22T05:08:47.972Z,99.99
2022-10-22T05:09:08.770Z,99.99
2022-10-22T05:09:29.396Z,99.99
2022-10-22T05:09:49.984Z,99.99
2022-10-22T05:10:10.577Z,99.99
2022-10-22T05:10:30.968Z,99.99
2022-10-22T05:10:51.364Z,99.99
2022-10-22T05:11:11.947Z,99.99
2022-10-22T05:11:32.531Z,99.99
2022-10-22T05:11:53.109Z,99.99
2022-10-22T05:12:13.688Z,99.99
2022-10-22T05:12:34.269Z,99.99
2022-10-22T05:12:54.851Z,99.99
2022-10-22T05:13:15.432Z,99.90
2022-10-22T05:13:36.014Z,99.90
2022-10-22T05:13:56.598Z,99.79
2022-10-22T05:14:17.187Z,99.79
2022-10-22T05:14:41.414Z,99.79
2022-10-22T05:14:58.187Z,99.79
2022-10-22T05:15:18.764Z,99.79
2022-10-22T05:15:39.344Z,99.79
2022-10-22T05:15:59.921Z,99.79
2022-10-22T05:16:20.505Z,99.79
2022-10-22T05:16:41.117Z,99.79
2022-10-22T05:17:01.703Z,99.79
2022-10-22T05:17:22.269Z,99.79
2022-10-22T05:17:43.043Z,99.69
2022-10-22T05:18:03.797Z,99.69
2022-10-22T05:18:24.377Z,99.59
2022-10-22T05:18:44.963Z,99.59
2022-10-22T05:19:05.545Z,99.59
2022-10-22T05:19:26.130Z,99.69
2022-10-22T05:19:46.714Z,99.69
2022-10-22T05:20:07.307Z,99.69
2022-10-22T05:20:27.886Z,99.79
2022-10-22T05:20:48.471Z,99.79
2022-10-22T05:21:09.055Z,99.79
2022-10-22T05:21:29.641Z,99.79
2022-10-22T05:21:50.224Z,99.79
2022-10-22T05:22:10.616Z,99.79
2022-10-22T05:22:31.200Z,99.79
2022-10-22T05:22:51.780Z,99.79
2022-10-22T05:23:12.362Z,99.79
2022-10-22T05:23:32.946Z,99.79
2022-10-22T05:23:53.524Z,99.79
2022-10-22T05:24:14.106Z,99.79
2022-10-22T05:24:34.687Z,99.79
2022-10-22T05:24:55.285Z,99.79
2022-10-22T05:25:15.868Z,99.79
2022-10-22T05:25:36.449Z,99.79
2022-10-22T05:25:57.032Z,99.79
2022-10-22T05:26:17.616Z,99.79
2022-10-22T05:26:38.200Z,99.79
2022-10-22T05:26:58.783Z,99.79
2022-10-22T05:27:40.292Z,99.69
2022-10-22T05:28:01.089Z,99.69
2022-10-22T05:28:21.678Z,99.69
2022-10-22T05:28:42.253Z,99.69
2022-10-22T05:29:02.835Z,99.69
2022-10-22T05:29:23.414Z,99.69
2022-10-22T05:29:43.995Z,99.69
2022-10-22T05:30:04.593Z,99.69
2022-10-22T05:30:25.174Z,99.59
2022-10-22T05:30:45.753Z,99.59
2022-10-22T05:31:06.337Z,99.59
2022-10-22T05:31:26.922Z,99.49
2022-10-22T05:31:47.313Z,99.49
2022-10-22T05:32:07.733Z,99.49
2022-10-22T05:32:28.290Z,99.49
2022-10-22T05:32:48.874Z,99.49
2022-10-22T05:33:09.268Z,99.49
2022-10-22T05:33:29.846Z,99.49
2022-10-22T05:33:50.432Z,99.49
2022-10-22T05:34:11.006Z,99.49
2022-10-22T05:34:31.588Z,99.49
2022-10-22T05:34:52.178Z,99.49
2022-10-22T05:35:12.765Z,99.49
2022-10-22T05:35:33.355Z,99.49
2022-10-22T05:35:53.937Z,99.49
2022-10-22T05:36:14.553Z,99.59
2022-10-22T05:36:35.105Z,99.59
2022-10-22T05:36:55.684Z,99.59
2022-10-22T05:37:16.266Z,99.49
2022-10-22T05:37:36.847Z,99.39
2022-10-22T05:38:17.997Z,99.39
2022-10-22T05:38:38.580Z,99.39
2022-10-22T05:38:59.163Z,99.49
2022-10-22T05:39:19.759Z,99.49
2022-10-22T05:39:40.145Z,99.49
2022-10-22T05:40:12.479Z,99.59
2022-10-22T05:40:30.629Z,99.64
2022-10-22T05:40:41.544Z,99.74
2022-10-22T05:41:02.128Z,99.74
2022-10-22T05:41:22.710Z,99.74
2022-10-22T05:41:43.289Z,99.74
2022-10-22T05:42:03.868Z,99.84
2022-10-22T05:42:24.447Z,99.84
2022-10-22T05:42:45.027Z,99.84
2022-10-22T05:43:05.608Z,99.84
2022-10-22T05:43:26.188Z,99.84
2022-10-22T05:43:46.773Z,99.84
2022-10-22T05:44:07.362Z,99.84
2022-10-22T05:44:27.952Z,99.84
2022-10-22T05:44:48.542Z,99.84
2022-10-22T05:45:09.136Z,99.84
2022-10-22T05:45:29.728Z,99.84
2022-10-22T05:45:50.310Z,99.84
2022-10-22T05:46:10.894Z,99.84
2022-10-22T05:46:31.478Z,99.84
2022-10-22T05:46:52.063Z,99.84
2022-10-22T05:47:12.673Z,99.84
2022-10-22T05:47:33.223Z,99.84
2022-10-22T05:47:53.804Z,99.95
2022-10-22T05:48:14.391Z,99.84
2022-10-22T05:48:34.974Z,99.84
2022-10-22T05:48:55.558Z,99.84
2022-10-22T05:49:16.141Z,99.84
2022-10-22T05:49:36.727Z,99.84
2022-10-22T05:49:57.323Z,99.84
2022-10-22T05:50:17.909Z,99.74
2022-10-22T05:50:38.490Z,99.74
2022-10-22T05:50:59.078Z,99.64
2022-10-22T05:51:19.658Z,99.64
2022-10-22T05:51:40.240Z,99.64
2022-10-22T05:52:00.819Z,99.64
2022-10-22T05:52:21.397Z,99.64
2022-10-22T05:52:42.314Z,99.64
2022-10-22T05:53:03.039Z,99.64
2022-10-22T05:53:23.616Z,99.74
2022-10-22T05:53:44.194Z,99.74
2022-10-22T05:54:04.777Z,99.74
2022-10-22T05:54:25.360Z,99.74
2022-10-22T05:54:45.958Z,99.74
2022-10-22T05:55:06.547Z,99.84
2022-10-22T05:55:27.134Z,99.74
2022-10-22T05:55:47.716Z,99.74
2022-10-22T05:56:08.294Z,99.74
2022-10-22T05:56:28.877Z,99.74
2022-10-22T05:56:49.456Z,99.74
2022-10-22T05:57:10.037Z,99.64
2022-10-22T05:57:30.619Z,99.64
2022-10-22T05:57:51.203Z,99.64
2022-10-22T05:58:11.784Z,99.64
2022-10-22T05:58:32.367Z,99.64
2022-10-22T05:58:53.023Z,99.64
2022-10-22T05:59:13.573Z,99.64
2022-10-22T05:59:34.167Z,99.64
2022-10-22T05:59:54.751Z,99.64
2022-10-22T06:00:16.515Z,99.64
2022-10-22T06:00:37.191Z,99.64
2022-10-22T06:00:57.760Z,99.64
2022-10-22T06:01:18.343Z,99.64
2022-10-22T06:01:38.927Z,99.64
2022-10-22T06:01:59.587Z,99.64
2022-10-22T06:02:20.252Z,99.64
2022-10-22T06:02:41.061Z,99.64
2022-10-22T06:03:01.724Z,99.64
2022-10-22T06:03:22.305Z,99.74
2022-10-22T06:03:42.877Z,99.64
2022-10-22T06:04:03.269Z,99.64
2022-10-22T06:04:23.851Z,99.64
2022-10-22T06:04:44.448Z,99.54
2022-10-22T06:05:05.032Z,99.54
2022-10-22T06:05:25.617Z,99.54
2022-10-22T06:05:46.196Z,99.54
2022-10-22T06:06:06.781Z,99.54
2022-10-22T06:06:27.351Z,99.43
2022-10-22T06:06:47.929Z,99.43
2022-10-22T06:07:08.511Z,99.43
2022-10-22T06:07:28.906Z,99.43
2022-10-22T06:07:49.483Z,99.43
2022-10-22T06:08:10.071Z,99.54
2022-10-22T06:08:30.738Z,99.43
2022-10-22T06:08:51.376Z,99.43
2022-10-22T06:09:12.003Z,99.43
2022-10-22T06:09:32.604Z,99.43
2022-10-22T06:09:53.166Z,99.54
2022-10-22T06:10:13.563Z,99.54
2022-10-22T06:10:34.146Z,99.54
2022-10-22T06:10:54.727Z,99.54
2022-10-22T06:11:15.308Z,99.54
2022-10-22T06:11:35.952Z,99.54
2022-10-22T06:11:56.284Z,99.54
2022-10-22T06:12:16.871Z,99.54
2022-10-22T06:12:37.709Z,99.64
2022-10-22T06:12:58.335Z,99.64
2022-10-22T06:13:18.916Z,99.64
2022-10-22T06:13:39.508Z,99.64
2022-10-22T06:14:00.096Z,99.64
2022-10-22T06:14:20.670Z,99.64
2022-10-22T06:14:41.262Z,99.64
2022-10-22T06:15:01.844Z,99.64
2022-10-22T06:15:22.426Z,99.64
2022-10-22T06:15:42.819Z,99.74
2022-10-22T06:16:03.400Z,99.74
2022-10-22T06:16:23.982Z,99.74
2022-10-22T06:16:44.562Z,99.74
2022-10-22T06:17:05.150Z,99.74
2022-10-22T06:17:25.755Z,99.74
2022-10-22T06:17:46.318Z,99.74
2022-10-22T06:18:06.896Z,99.74
2022-10-22T06:18:27.480Z,99.74
2022-10-22T06:18:48.068Z,99.74
2022-10-22T06:19:08.648Z,99.74
2022-10-22T06:19:29.223Z,99.74
2022-10-22T06:19:49.824Z,99.74
2022-10-22T06:20:10.417Z,99.74
2022-10-22T06:20:30.993Z,99.64
2022-10-22T06:20:51.573Z,99.64
2022-10-22T06:21:11.972Z,99.64
2022-10-22T06:21:32.549Z,99.64
2022-10-22T06:21:53.132Z,99.64
2022-10-22T06:22:13.715Z,99.64
2022-10-22T06:22:34.294Z,99.64
2022-10-22T06:22:54.876Z,99.64
2022-10-22T06:23:15.279Z,99.64
2022-10-22T06:23:35.852Z,99.54
2022-10-22T06:23:56.436Z,99.54
2022-10-22T06:24:17.022Z,99.54
2022-10-22T06:24:40.428Z,99.54
2022-10-22T06:24:58.043Z,99.54
2022-10-22T06:25:18.625Z,99.54
2022-10-22T06:25:39.209Z,99.54
2022-10-22T06:25:59.799Z,99.64
2022-10-22T06:26:20.382Z,99.54
2022-10-22T06:26:40.966Z,99.54